Time;durP1;ratioP1;P1;durP2;ratioP2;P2;SDS_P1;SDS_P2;PMS_P1;PMS_P2;Temp;Humidity;BMP_temperature;BMP_pressure;BME280_temperature;BME280_humidity;BME280_pressure;Samples;Min_cycle;Max_cycle;Signal;HPM_P1;HPM_P2
2023/11/15 00:01:49;;;;;;;10.50;1.65;;;9.00;99.90;;;;;;5114034;28;20028;-92
2023/11/15 00:04:17;;;;;;;9.45;1.50;;;9.00;99.90;;;;;;5096394;28;20053;-90
2023/11/15 00:06:43;;;;;;;8.10;3.13;;;9.00;99.90;;;;;;5096253;28;20077;-89
2023/11/15 00:09:09;;;;;;;16.90;5.50;;;8.90;99.90;;;;;;5096933;28;20047;-90
2023/11/15 00:11:35;;;;;;;16.98;4.18;;;8.90;99.90;;;;;;5102951;28;20034;-93
2023/11/15 00:14:02;;;;;;;14.00;4.22;;;8.90;99.90;;;;;;5104271;28;20027;-89
2023/11/15 00:16:28;;;;;;;13.45;3.63;;;9.00;99.90;;;;;;5100565;28;20074;-91
2023/11/15 01:17:44;;;;;;;12.68;2.70;;;9.10;99.90;;;;;;3588347;23;20241;-86
2023/11/15 01:20:12;;;;;;;12.25;3.50;;;9.10;99.90;;;;;;4947683;29;20043;-90
2023/11/15 01:22:38;;;;;;;14.98;2.53;;;9.10;99.90;;;;;;4953652;28;20030;-89
2023/11/15 01:25:06;;;;;;;16.67;2.60;;;9.00;99.90;;;;;;4956655;28;20027;-89
2023/11/15 01:27:32;;;;;;;10.35;2.63;;;9.00;99.90;;;;;;4956689;28;20373;-90
2023/11/15 01:29:57;;;;;;;12.52;2.88;;;9.00;99.90;;;;;;4957055;28;20027;-89
2023/11/15 01:32:23;;;;;;;16.52;2.60;;;9.00;99.90;;;;;;4956480;29;20556;-89
2023/11/15 01:34:48;;;;;;;13.07;2.50;;;9.00;99.90;;;;;;4956623;29;20035;-87
2023/11/15 01:37:14;;;;;;;8.20;2.05;;;9.00;99.90;;;;;;4956693;29;20031;-89
2023/11/15 01:39:43;;;;;;;14.55;2.28;;;9.00;99.90;;;;;;4956659;28;20035;-90
2023/11/15 01:42:09;;;;;;;11.90;2.00;;;8.90;99.90;;;;;;4957068;29;20468;-92
2023/11/15 01:44:35;;;;;;;11.88;3.30;;;9.00;99.90;;;;;;4957398;29;20039;-89
2023/11/15 01:47:01;;;;;;;15.88;2.47;;;8.90;99.90;;;;;;4956909;29;20445;-90
2023/11/15 01:49:27;;;;;;;12.07;3.58;;;8.90;99.90;;;;;;4956907;28;20069;-89
2023/11/15 01:51:54;;;;;;;11.00;2.95;;;8.90;99.90;;;;;;4956732;29;20063;-91
2023/11/15 01:54:21;;;;;;;12.38;2.97;;;8.90;99.90;;;;;;4956527;28;20066;-90
2023/11/15 01:56:47;;;;;;;11.75;2.80;;;8.90;99.90;;;;;;4957209;28;20023;-90
2023/11/15 01:59:14;;;;;;;12.70;2.30;;;8.90;99.90;;;;;;4955900;29;20039;-90
2023/11/15 02:01:41;;;;;;;13.57;2.20;;;8.90;99.90;;;;;;4956762;28;20074;-91
2023/11/15 02:04:08;;;;;;;12.35;2.25;;;8.90;99.90;;;;;;4930691;29;20059;-88
2023/11/15 02:06:35;;;;;;;13.10;2.75;;;8.90;99.90;;;;;;4950438;28;20056;-90
2023/11/15 02:09:02;;;;;;;13.38;2.55;;;8.90;99.90;;;;;;4936783;29;20152;-89
2023/11/15 02:11:28;;;;;;;7.32;2.13;;;8.90;99.90;;;;;;4937877;29;20038;-89
2023/11/15 02:13:58;;;;;;;12.70;2.22;;;8.90;99.90;;;;;;4937927;29;20070;-89
2023/11/15 02:16:24;;;;;;;17.25;2.13;;;8.90;99.90;;;;;;4939541;29;20024;-89
2023/11/15 02:18:50;;;;;;;19.92;2.83;;;8.90;99.90;;;;;;4939831;29;20055;-89
2023/11/15 02:21:16;;;;;;;12.68;2.10;;;8.90;99.90;;;;;;4957109;29;20039;-88
2023/11/15 02:23:45;;;;;;;12.00;2.10;;;8.90;99.90;;;;;;4940557;29;20067;-91
2023/11/15 02:26:12;;;;;;;11.82;2.08;;;8.90;99.90;;;;;;4938820;29;20103;-90
2023/11/15 02:28:38;;;;;;;11.75;2.75;;;8.90;99.90;;;;;;4936992;29;20027;-90
2023/11/15 02:31:05;;;;;;;10.82;2.33;;;8.80;99.90;;;;;;4937063;29;20031;-90
2023/11/15 02:33:32;;;;;;;12.68;2.55;;;8.80;99.90;;;;;;4936041;29;20079;-89
2023/11/15 02:35:58;;;;;;;13.93;2.70;;;8.80;99.90;;;;;;4936343;29;20032;-90
2023/11/15 02:38:23;;;;;;;11.63;2.70;;;8.80;99.90;;;;;;4937423;29;20381;-90
2023/11/15 02:40:49;;;;;;;10.18;3.13;;;8.80;99.90;;;;;;4936435;29;20035;-89
2023/11/15 02:43:15;;;;;;;10.65;2.33;;;8.80;99.90;;;;;;4936230;29;20357;-89
2023/11/15 02:45:41;;;;;;;11.98;2.30;;;8.80;99.90;;;;;;4936584;29;20062;-91
2023/11/15 02:48:06;;;;;;;17.48;2.20;;;8.80;99.90;;;;;;4936498;29;20490;-91
2023/11/15 02:50:32;;;;;;;14.15;2.13;;;8.80;99.90;;;;;;4937005;29;20080;-90
2023/11/15 02:52:58;;;;;;;14.93;2.13;;;8.80;99.90;;;;;;4936548;29;20030;-91
2023/11/15 02:55:25;;;;;;;10.85;2.10;;;8.80;99.90;;;;;;4905061;29;20024;-90
2023/11/15 02:57:53;;;;;;;12.68;1.75;;;8.80;99.90;;;;;;4936538;29;20035;-90
2023/11/15 03:00:19;;;;;;;10.90;2.53;;;8.80;99.90;;;;;;4936596;29;20059;-89
2023/11/15 03:02:45;;;;;;;11.13;2.60;;;8.80;99.90;;;;;;4932358;29;20080;-90
2023/11/15 03:05:11;;;;;;;11.05;1.90;;;8.80;99.90;;;;;;4935764;29;20140;-89
2023/11/15 03:07:37;;;;;;;9.18;2.13;;;8.80;99.90;;;;;;4935747;29;20385;-88
2023/11/15 03:10:08;;;;;;;12.57;2.53;;;8.80;99.90;;;;;;4936036;29;20389;-89
2023/11/15 03:12:34;;;;;;;7.97;2.03;;;8.80;99.90;;;;;;4936141;29;20156;-87
2023/11/15 03:14:59;;;;;;;7.97;2.38;;;8.80;99.90;;;;;;4936406;29;20047;-88
2023/11/15 03:17:26;;;;;;;16.38;2.83;;;8.80;99.90;;;;;;4936012;29;20481;-90
2023/11/15 03:19:52;;;;;;;10.10;2.33;;;8.80;99.90;;;;;;4935914;29;20055;-89
2023/11/15 03:22:18;;;;;;;13.70;3.17;;;8.80;99.90;;;;;;4920490;29;20556;-90
2023/11/15 03:24:45;;;;;;;20.58;3.67;;;8.80;99.90;;;;;;4937429;29;20123;-88
2023/11/15 03:27:12;;;;;;;12.10;3.70;;;8.80;99.90;;;;;;4935864;29;20027;-88
2023/11/15 03:29:37;;;;;;;14.93;3.58;;;8.80;99.90;;;;;;4935317;29;20034;-89
2023/11/15 03:32:03;;;;;;;12.73;4.00;;;8.80;99.90;;;;;;4935377;29;20027;-89
2023/11/15 03:34:29;;;;;;;9.57;3.65;;;8.80;99.90;;;;;;4935358;29;20035;-88
2023/11/15 03:36:55;;;;;;;13.48;2.90;;;8.80;99.90;;;;;;4935912;29;20118;-89
2023/11/15 03:39:22;;;;;;;14.90;3.97;;;8.80;99.90;;;;;;4935608;29;20032;-89
2023/11/15 03:41:47;;;;;;;4.47;2.20;;;8.80;99.90;;;;;;4935469;29;20031;-88
2023/11/15 03:44:15;;;;;;;10.93;2.63;;;8.80;99.90;;;;;;4935579;29;20028;-88
2023/11/15 03:46:41;;;;;;;10.63;2.70;;;8.80;99.90;;;;;;4936702;29;20050;-88
2023/11/15 03:49:06;;;;;;;16.90;3.03;;;8.80;99.90;;;;;;4935855;29;20042;-88
2023/11/15 03:51:32;;;;;;;13.05;3.42;;;8.80;99.90;;;;;;4935952;29;20540;-88
2023/11/15 03:53:58;;;;;;;17.67;3.15;;;8.80;99.90;;;;;;4935886;29;20019;-87
2023/11/15 03:56:24;;;;;;;14.40;3.75;;;8.80;99.90;;;;;;4935558;29;20028;-89
2023/11/15 03:58:49;;;;;;;6.78;2.13;;;8.80;99.90;;;;;;4935782;29;20059;-88
2023/11/15 04:01:15;;;;;;;14.30;2.67;;;8.80;99.90;;;;;;4934423;29;20119;-88
2023/11/15 04:03:40;;;;;;;14.20;3.33;;;8.80;99.90;;;;;;4934957;29;20429;-89
2023/11/15 04:06:07;;;;;;;14.23;2.60;;;8.80;99.90;;;;;;4936077;29;20043;-88
2023/11/15 04:08:33;;;;;;;12.57;2.28;;;8.80;99.90;;;;;;4935680;29;20024;-88
2023/11/15 04:10:59;;;;;;;16.65;2.30;;;8.80;99.90;;;;;;4936225;29;20026;-88
2023/11/15 04:13:24;;;;;;;10.35;1.95;;;8.80;99.90;;;;;;4936312;29;20038;-88
2023/11/15 04:15:51;;;;;;;7.63;1.55;;;8.80;99.90;;;;;;4935753;29;20493;-91
2023/11/15 04:18:16;;;;;;;9.02;1.85;;;8.80;99.90;;;;;;4935116;29;20048;-88
2023/11/15 04:20:42;;;;;;;12.10;2.35;;;8.70;99.90;;;;;;4935107;29;20036;-88
2023/11/15 04:23:08;;;;;;;17.27;3.42;;;8.70;99.90;;;;;;4935105;29;20028;-88
2023/11/15 04:25:33;;;;;;;15.75;3.00;;;8.70;99.90;;;;;;4934966;29;20035;-89
2023/11/15 04:27:59;;;;;;;15.10;3.75;;;8.70;99.90;;;;;;4936277;29;20465;-91
2023/11/15 04:30:26;;;;;;;16.80;3.00;;;8.70;99.90;;;;;;4935520;29;20035;-91
2023/11/15 04:32:52;;;;;;;17.95;2.92;;;8.70;99.90;;;;;;4934812;29;20508;-90
2023/11/15 04:35:18;;;;;;;16.17;2.70;;;8.70;99.90;;;;;;4935381;29;20128;-89
2023/11/15 04:37:44;;;;;;;10.45;2.50;;;8.60;99.90;;;;;;4934918;29;20161;-89
2023/11/15 04:40:10;;;;;;;13.93;2.53;;;8.70;99.90;;;;;;4934994;29;20086;-89
2023/11/15 04:42:36;;;;;;;12.60;2.33;;;8.60;99.90;;;;;;4935293;29;20028;-88
2023/11/15 04:45:02;;;;;;;13.57;1.95;;;8.60;99.90;;;;;;4934698;29;20032;-89
2023/11/15 04:47:28;;;;;;;20.65;2.45;;;8.60;99.90;;;;;;4934958;29;20060;-87
2023/11/15 04:49:54;;;;;;;17.23;2.63;;;8.60;99.90;;;;;;4935247;29;20028;-89
2023/11/15 04:52:20;;;;;;;14.63;1.92;;;8.60;99.90;;;;;;4934681;29;20035;-89
2023/11/15 04:54:45;;;;;;;21.90;2.78;;;8.60;99.90;;;;;;4935389;29;20111;-89
2023/11/15 04:57:11;;;;;;;10.15;1.30;;;8.60;99.90;;;;;;4935579;29;20024;-90
2023/11/15 04:59:37;;;;;;;16.80;2.13;;;8.60;99.90;;;;;;4938709;29;20059;-90
2023/11/15 05:02:03;;;;;;;15.60;2.38;;;8.50;99.90;;;;;;4938949;29;20498;-89
2023/11/15 05:04:29;;;;;;;15.27;2.65;;;8.50;99.90;;;;;;4939802;29;20024;-90
2023/11/15 05:06:54;;;;;;;15.48;2.25;;;8.50;99.90;;;;;;4939899;29;20075;-89
2023/11/15 05:09:21;;;;;;;15.32;2.33;;;8.50;99.90;;;;;;4938409;29;20063;-90
2023/11/15 05:11:48;;;;;;;15.07;2.25;;;8.50;99.90;;;;;;4940746;29;20094;-90
2023/11/15 05:14:14;;;;;;;18.80;3.10;;;8.50;99.90;;;;;;4941249;29;20489;-91
2023/11/15 05:16:40;;;;;;;12.93;2.50;;;8.50;99.90;;;;;;4941043;29;20035;-90
2023/11/15 05:19:07;;;;;;;26.85;3.17;;;8.50;99.90;;;;;;4938979;29;20504;-90
2023/11/15 05:21:32;;;;;;;22.48;2.45;;;8.50;99.90;;;;;;4938857;29;20126;-90
2023/11/15 05:23:59;;;;;;;21.02;2.42;;;8.50;99.90;;;;;;4939957;29;20091;-90
2023/11/15 05:26:25;;;;;;;14.40;2.15;;;8.50;99.90;;;;;;4937902;29;20054;-91
2023/11/15 05:28:51;;;;;;;23.15;3.13;;;8.50;99.90;;;;;;4938133;29;20131;-89
2023/11/15 05:31:17;;;;;;;24.65;2.65;;;8.50;99.90;;;;;;4939541;29;20114;-90
2023/11/15 05:33:46;;;;;;;18.08;3.33;;;8.50;99.90;;;;;;4938235;29;20024;-92
2023/11/15 05:36:12;;;;;;;25.00;3.35;;;8.50;99.90;;;;;;4937811;29;20032;-90
2023/11/15 05:38:37;;;;;;;16.98;3.55;;;8.40;99.90;;;;;;4938197;29;20114;-91
2023/11/15 05:41:05;;;;;;;18.25;2.67;;;8.40;99.90;;;;;;4938498;29;20131;-91
2023/11/15 05:43:31;;;;;;;25.33;2.78;;;8.40;99.90;;;;;;4937952;29;20032;-92
2023/11/15 05:45:58;;;;;;;18.15;2.30;;;8.40;99.90;;;;;;4937901;29;20032;-91
2023/11/15 05:48:24;;;;;;;20.15;3.03;;;8.40;99.90;;;;;;4938915;29;20055;-91
2023/11/15 05:50:49;;;;;;;28.30;4.22;;;8.40;99.90;;;;;;4939224;29;20473;-91
2023/11/15 05:53:16;;;;;;;20.02;3.55;;;8.40;99.90;;;;;;4938205;29;20545;-91
2023/11/15 05:55:42;;;;;;;25.85;4.07;;;8.40;99.90;;;;;;4938005;29;20027;-90
2023/11/15 05:58:09;;;;;;;15.27;2.60;;;8.30;99.90;;;;;;4938166;29;20572;-92
2023/11/15 06:00:35;;;;;;;17.65;2.67;;;8.30;99.90;;;;;;4937441;29;20043;-88
2023/11/15 06:03:01;;;;;;;19.17;3.03;;;8.30;99.90;;;;;;4937418;29;20133;-90
2023/11/15 06:05:26;;;;;;;25.17;3.20;;;8.30;99.90;;;;;;4937586;29;20528;-90
2023/11/15 06:07:52;;;;;;;26.90;4.65;;;8.30;99.90;;;;;;4937021;29;20078;-90
2023/11/15 06:10:18;;;;;;;19.25;5.15;;;8.30;99.90;;;;;;4936925;29;20337;-90
2023/11/15 06:12:44;;;;;;;12.80;2.20;;;8.30;99.90;;;;;;4937513;29;20093;-90
2023/11/15 06:15:10;;;;;;;18.40;2.42;;;8.30;99.90;;;;;;4937312;29;20028;-91
2023/11/15 06:17:39;;;;;;;19.60;3.95;;;8.30;99.90;;;;;;4937973;29;20034;-90
2023/11/15 06:20:09;;;;;;;20.98;3.85;;;8.30;99.90;;;;;;4936521;29;20048;-88
2023/11/15 06:22:38;;;;;;;25.92;4.35;;;8.30;99.90;;;;;;4936916;29;20031;-90
2023/11/15 06:25:06;;;;;;;14.73;2.70;;;8.30;99.90;;;;;;4937168;29;20038;-87
2023/11/15 06:27:33;;;;;;;20.02;3.55;;;8.30;99.90;;;;;;4938403;29;20024;-90
2023/11/15 06:29:59;;;;;;;24.27;3.33;;;8.30;99.90;;;;;;4941759;29;20032;-91
2023/11/15 06:32:28;;;;;;;10.80;2.10;;;8.30;99.90;;;;;;4942447;29;20039;-90
2023/11/15 06:34:57;;;;;;;21.88;3.40;;;8.30;99.90;;;;;;4942809;29;20068;-91
2023/11/15 06:37:23;;;;;;;18.13;3.28;;;8.20;99.90;;;;;;4940722;29;20032;-90
2023/11/15 06:39:49;;;;;;;20.45;2.92;;;8.20;99.90;;;;;;4937405;29;20023;-92
2023/11/15 06:42:16;;;;;;;23.40;3.30;;;8.20;99.90;;;;;;4937332;29;20098;-91
2023/11/15 06:44:42;;;;;;;18.75;3.40;;;8.20;99.90;;;;;;4937435;29;20088;-91
2023/11/15 06:47:09;;;;;;;20.52;2.85;;;8.20;99.90;;;;;;4937002;29;20489;-91
2023/11/15 06:49:37;;;;;;;16.13;2.58;;;8.20;99.90;;;;;;4937569;29;20409;-89
2023/11/15 06:52:05;;;;;;;23.42;3.15;;;8.20;99.90;;;;;;4937428;29;20028;-89
2023/11/15 06:54:31;;;;;;;24.83;3.42;;;8.20;99.90;;;;;;4936903;29;20035;-88
2023/11/15 06:57:03;;;;;;;24.20;3.40;;;8.20;99.90;;;;;;4937281;29;20038;-91
2023/11/15 06:59:29;;;;;;;16.52;2.92;;;8.20;99.90;;;;;;4937524;29;20032;-90
2023/11/15 07:01:55;;;;;;;14.95;2.92;;;8.20;99.90;;;;;;4937249;29;20024;-89
2023/11/15 07:04:23;;;;;;;22.08;3.40;;;8.20;99.90;;;;;;4935989;29;20024;-90
2023/11/15 07:06:49;;;;;;;32.08;3.72;;;8.20;99.90;;;;;;4912168;29;20556;-90
2023/11/15 07:09:15;;;;;;;18.33;3.35;;;8.10;99.90;;;;;;4930953;29;20481;-90
2023/11/15 07:11:52;;;;;;;17.63;2.65;;;8.10;99.90;;;;;;4916197;29;20039;-88
2023/11/15 07:14:28;;;;;;;20.13;3.08;;;8.10;99.90;;;;;;4935388;29;20034;-89
2023/11/15 07:16:58;;;;;;;22.35;3.20;;;8.10;99.90;;;;;;4918038;29;20040;-88
2023/11/15 07:19:24;;;;;;;17.55;2.60;;;8.20;99.90;;;;;;4917801;29;20497;-90
2023/11/15 07:21:54;;;;;;;21.67;3.30;;;8.10;99.90;;;;;;4917210;29;20508;-90
2023/11/15 07:24:23;;;;;;;19.25;4.30;;;8.10;99.90;;;;;;4920866;29;20024;-89
2023/11/15 07:26:48;;;;;;;23.00;5.70;;;8.10;99.90;;;;;;4943214;29;20035;-90
2023/11/15 07:29:20;;;;;;;17.67;3.30;;;8.10;99.90;;;;;;4945663;29;20437;-90
2023/11/15 07:31:52;;;;;;;24.30;3.40;;;8.20;99.90;;;;;;4940156;29;20442;-90
2023/11/15 07:34:23;;;;;;;17.80;3.60;;;8.20;99.90;;;;;;4936506;29;20032;-91
2023/11/15 07:36:55;;;;;;;19.10;4.88;;;8.20;99.90;;;;;;4936780;29;20023;-89
2023/11/15 07:39:28;;;;;;;30.77;4.45;;;8.10;99.90;;;;;;4937137;29;20032;-91
2023/11/15 07:42:00;;;;;;;14.95;2.88;;;8.20;99.90;;;;;;4921242;29;20032;-90
2023/11/15 07:44:26;;;;;;;17.15;3.55;;;8.20;99.90;;;;;;4936424;29;20102;-89
2023/11/15 07:46:54;;;;;;;21.25;3.90;;;8.10;99.90;;;;;;4919822;29;20501;-90
2023/11/15 07:49:23;;;;;;;23.67;5.72;;;8.20;99.90;;;;;;4935541;29;20031;-89
2023/11/15 07:51:53;;;;;;;17.92;4.53;;;8.10;99.90;;;;;;4935953;29;20058;-89
2023/11/15 07:54:21;;;;;;;16.02;3.58;;;8.20;99.90;;;;;;4932856;29;20071;-90
2023/11/15 07:56:49;;;;;;;25.30;5.03;;;8.10;99.90;;;;;;4935633;29;20035;-90
2023/11/15 07:59:21;;;;;;;18.58;3.80;;;8.20;99.90;;;;;;4935278;29;20039;-89
2023/11/15 08:01:49;;;;;;;18.27;3.20;;;8.10;99.90;;;;;;4933260;29;20046;-88
2023/11/15 08:04:15;;;;;;;27.00;4.90;;;8.10;99.90;;;;;;4935048;29;20082;-88
2023/11/15 08:06:42;;;;;;;17.85;3.65;;;8.10;99.90;;;;;;4936402;29;20474;-89
2023/11/15 08:09:07;;;;;;;16.23;2.63;;;8.10;99.90;;;;;;4935391;29;20024;-88
2023/11/15 08:11:37;;;;;;;20.17;2.88;;;8.10;99.90;;;;;;4934948;29;20082;-90
2023/11/15 08:14:06;;;;;;;19.33;2.70;;;8.10;99.90;;;;;;4937118;29;20039;-89
2023/11/15 08:16:32;;;;;;;18.70;2.60;;;8.10;99.90;;;;;;4924757;29;20397;-89
2023/11/15 08:18:59;;;;;;;17.80;3.22;;;8.10;99.90;;;;;;4937197;29;20055;-89
2023/11/15 08:21:25;;;;;;;17.65;2.75;;;8.10;99.90;;;;;;4934510;29;20036;-90
2023/11/15 08:23:51;;;;;;;8.63;1.95;;;8.10;99.90;;;;;;4935274;29;20079;-88
2023/11/15 08:26:21;;;;;;;23.08;4.05;;;8.20;99.90;;;;;;4935184;29;20090;-89
2023/11/15 08:28:47;;;;;;;32.87;4.20;;;8.20;99.90;;;;;;4935083;29;20055;-90
2023/11/15 08:31:16;;;;;;;26.45;4.35;;;8.20;99.90;;;;;;4935185;29;20267;-89
2023/11/15 08:33:44;;;;;;;19.20;3.90;;;8.20;99.90;;;;;;4938792;29;20028;-89
2023/11/15 08:36:12;;;;;;;29.63;4.00;;;8.20;99.90;;;;;;4939990;29;20020;-89
2023/11/15 08:38:38;;;;;;;22.05;2.97;;;8.20;99.90;;;;;;4939401;29;20031;-89
2023/11/15 08:41:04;;;;;;;18.30;3.35;;;8.20;99.90;;;;;;4938974;29;20040;-89
2023/11/15 08:43:29;;;;;;;21.95;4.18;;;8.20;99.90;;;;;;4940124;29;20035;-90
2023/11/15 08:45:57;;;;;;;20.35;3.22;;;8.20;99.90;;;;;;4939980;29;20063;-88
2023/11/15 08:48:23;;;;;;;22.70;3.55;;;8.20;99.90;;;;;;4939023;29;20024;-89
2023/11/15 08:50:54;;;;;;;16.67;2.80;;;8.20;99.90;;;;;;4936829;29;20131;-89
2023/11/15 08:53:25;;;;;;;23.13;2.28;;;8.20;99.90;;;;;;4937006;29;20396;-89
2023/11/15 08:55:51;;;;;;;17.05;2.90;;;8.20;99.90;;;;;;4938524;29;20031;-90
2023/11/15 08:58:19;;;;;;;14.27;2.33;;;8.20;99.90;;;;;;4932915;29;20496;-90
2023/11/15 09:00:46;;;;;;;29.55;4.50;;;8.20;99.90;;;;;;4938642;29;20046;-89
2023/11/15 09:03:14;;;;;;;24.10;3.00;;;8.20;99.90;;;;;;4935662;29;20074;-90
2023/11/15 09:05:43;;;;;;;19.05;2.75;;;8.20;99.90;;;;;;4935252;29;20047;-89
2023/11/15 09:08:11;;;;;;;13.70;3.10;;;8.20;99.90;;;;;;4937580;29;20026;-88
2023/11/15 09:10:37;;;;;;;23.80;3.05;;;8.20;99.90;;;;;;4937022;29;20047;-90
2023/11/15 09:13:03;;;;;;;20.50;3.40;;;8.20;99.90;;;;;;4937310;29;20026;-89
2023/11/15 09:15:31;;;;;;;9.43;2.28;;;8.20;99.90;;;;;;4937757;29;20480;-88
2023/11/15 09:18:00;;;;;;;27.20;4.32;;;8.20;99.90;;;;;;4935811;29;20559;-89
2023/11/15 09:20:26;;;;;;;21.17;3.28;;;8.20;99.90;;;;;;4937351;29;20048;-90
2023/11/15 09:22:55;;;;;;;18.38;4.30;;;8.20;99.90;;;;;;4936253;29;20048;-88
2023/11/15 09:25:23;;;;;;;23.25;3.13;;;8.20;99.90;;;;;;4939133;29;20019;-88
2023/11/15 09:27:54;;;;;;;20.35;4.30;;;8.20;99.90;;;;;;4942345;29;20036;-91
2023/11/15 09:30:21;;;;;;;23.45;3.53;;;8.30;99.90;;;;;;4938982;29;20024;-89
2023/11/15 09:32:50;;;;;;;19.50;2.90;;;8.30;99.90;;;;;;4941078;29;20040;-89
2023/11/15 09:35:21;;;;;;;22.05;3.83;;;8.30;99.90;;;;;;4937441;29;20015;-89
2023/11/15 09:37:47;;;;;;;;;;;8.30;99.90;;;;;;4937762;29;20035;-88
2023/11/15 09:40:13;;;;;;;25.55;3.20;;;8.30;99.90;;;;;;4945330;28;20368;-88
2023/11/15 09:42:43;;;;;;;17.23;2.67;;;8.30;99.90;;;;;;4938613;29;20037;-88
2023/11/15 09:45:19;;;;;;;21.80;2.50;;;8.30;99.90;;;;;;4936199;29;20172;-89
2023/11/15 09:47:50;;;;;;;16.13;2.72;;;8.30;99.90;;;;;;4938283;29;20475;-88
2023/11/15 09:50:23;;;;;;;19.05;2.67;;;8.30;99.90;;;;;;4936251;29;20526;-88
2023/11/15 09:52:55;;;;;;;20.52;2.97;;;8.30;99.90;;;;;;4935530;29;20478;-88
2023/11/15 09:55:23;;;;;;;19.50;3.20;;;8.30;99.90;;;;;;4932511;29;20509;-90
2023/11/15 09:57:51;;;;;;;26.15;4.18;;;8.30;99.90;;;;;;4938220;29;20590;-90
2023/11/15 10:00:21;;;;;;;24.63;3.95;;;8.30;99.90;;;;;;4931640;29;20043;-89
2023/11/15 10:02:48;;;;;;;24.97;2.77;;;8.30;99.90;;;;;;4942845;29;20042;-89
2023/11/15 10:05:19;;;;;;;17.30;2.72;;;8.30;99.90;;;;;;4937122;29;20027;-90
2023/11/15 10:07:50;;;;;;;15.38;2.85;;;8.30;99.90;;;;;;4934469;29;20870;-90
2023/11/15 10:10:23;;;;;;;16.20;2.40;;;8.40;99.90;;;;;;4926992;29;20086;-90
2023/11/15 10:12:53;;;;;;;19.15;2.28;;;8.40;99.90;;;;;;4934201;29;20023;-90
2023/11/15 10:15:36;;;;;;;;;;;8.40;99.90;;;;;;4931802;29;20090;-89
2023/11/15 10:18:11;;;;;;;21.17;2.53;;;8.30;99.90;;;;;;4937390;29;19907;-89
2023/11/15 10:20:38;;;;;;;19.33;2.40;;;8.30;99.90;;;;;;4933881;29;20130;-89
2023/11/15 10:23:04;;;;;;;20.10;4.00;;;8.30;99.90;;;;;;4934530;29;20103;-89
2023/11/15 10:25:31;;;;;;;13.00;2.40;;;8.30;99.90;;;;;;4933547;29;20032;-89
2023/11/15 10:28:07;;;;;;;16.10;3.20;;;8.30;99.90;;;;;;4937126;29;20020;-88
2023/11/15 10:30:33;;;;;;;17.48;2.30;;;8.40;99.90;;;;;;4935912;29;20027;-89
2023/11/15 10:33:18;;;;;;;15.95;2.72;;;8.40;99.90;;;;;;4935968;29;20035;-89
2023/11/15 10:35:44;;;;;;;17.38;2.38;;;8.30;99.90;;;;;;4933484;29;20071;-89
2023/11/15 10:38:23;;;;;;;11.88;2.25;;;8.30;99.90;;;;;;4937583;29;20054;-89
2023/11/15 10:40:52;;;;;;;21.30;2.80;;;8.30;99.90;;;;;;4931317;29;20686;-89
2023/11/15 10:43:20;;;;;;;11.95;2.28;;;8.30;99.90;;;;;;4930494;29;20470;-91
2023/11/15 10:45:51;;;;;;;18.67;2.70;;;8.30;99.90;;;;;;4936554;29;20031;-88
2023/11/15 10:48:21;;;;;;;16.10;2.10;;;8.30;99.90;;;;;;4933413;29;20488;-88
2023/11/15 10:50:53;;;;;;;14.95;1.92;;;8.30;99.90;;;;;;4930961;29;20086;-87
2023/11/15 10:53:19;;;;;;;20.42;2.30;;;8.30;99.90;;;;;;4934996;29;20046;-87
2023/11/15 10:55:47;;;;;;;14.38;2.47;;;8.40;99.90;;;;;;4935444;29;20110;-88
2023/11/15 10:58:16;;;;;;;13.05;2.95;;;8.40;99.90;;;;;;4935719;29;20167;-89
2023/11/15 11:00:43;;;;;;;28.38;2.85;;;8.40;99.90;;;;;;4934072;29;20114;-88
2023/11/15 11:03:09;;;;;;;15.25;2.15;;;8.40;99.90;;;;;;4936515;29;20016;-88
2023/11/15 11:05:52;;;;;;;20.42;2.22;;;8.50;99.90;;;;;;4936411;29;20031;-87
2023/11/15 11:08:48;;;;;;;18.00;2.60;;;8.50;99.90;;;;;;4936547;29;20024;-88
2023/11/15 11:11:40;;;;;;;20.63;2.88;;;8.60;99.90;;;;;;4935926;29;20528;-88
2023/11/15 11:14:28;;;;;;;13.05;2.20;;;8.60;99.90;;;;;;4933814;29;20054;-88
2023/11/15 11:16:56;;;;;;;9.77;1.60;;;8.60;99.90;;;;;;4926506;29;20062;-89
2023/11/15 11:19:24;;;;;;;19.80;2.35;;;8.60;99.90;;;;;;4935835;29;20075;-90
2023/11/15 11:22:02;;;;;;;14.23;2.00;;;8.60;99.90;;;;;;4935147;29;20114;-88
2023/11/15 11:24:32;;;;;;;19.25;2.25;;;8.70;99.90;;;;;;4935667;29;20172;-89
2023/11/15 11:27:16;;;;;;;16.15;2.22;;;8.70;99.90;;;;;;4935230;29;20035;-89
2023/11/15 11:30:01;;;;;;;16.90;2.08;;;8.70;99.90;;;;;;4926955;29;20086;-88
2023/11/15 11:32:35;;;;;;;17.52;2.35;;;8.70;99.90;;;;;;4928426;28;20055;-87
2023/11/15 11:35:01;;;;;;;17.52;2.33;;;8.70;99.90;;;;;;4936832;29;20038;-87
2023/11/15 11:37:44;;;;;;;8.60;1.10;;;8.70;99.90;;;;;;4936101;29;20032;-87
2023/11/15 11:40:25;;;;;;;12.43;1.75;;;8.70;99.90;;;;;;4936917;29;20038;-87
2023/11/15 11:42:55;;;;;;;14.23;1.65;;;8.70;99.90;;;;;;4937687;29;20036;-88
2023/11/15 11:45:23;;;;;;;17.70;2.20;;;8.70;99.90;;;;;;4937212;29;20032;-87
2023/11/15 11:47:49;;;;;;;9.50;1.95;;;8.80;99.90;;;;;;4938902;29;20027;-87
2023/11/15 11:50:25;;;;;;;13.38;2.05;;;8.80;99.90;;;;;;4939256;29;20031;-88
2023/11/15 11:52:55;;;;;;;14.80;2.45;;;8.80;99.90;;;;;;4939801;29;20055;-87
2023/11/15 11:55:21;;;;;;;22.30;2.37;;;8.80;99.90;;;;;;4941760;29;20030;-87
2023/11/15 11:57:50;;;;;;;13.60;1.85;;;8.80;99.90;;;;;;4941408;29;20032;-87
2023/11/15 12:00:16;;;;;;;13.20;2.08;;;8.90;99.90;;;;;;4939339;29;20528;-87
2023/11/15 12:02:45;;;;;;;15.88;1.80;;;8.80;99.90;;;;;;4936997;29;20028;-87
2023/11/15 12:05:12;;;;;;;19.92;2.50;;;8.80;99.90;;;;;;4936417;29;20544;-87
2023/11/15 12:07:46;;;;;;;23.70;2.67;;;8.80;99.90;;;;;;4935133;29;20048;-88
2023/11/15 12:10:13;;;;;;;14.98;2.08;;;8.90;99.90;;;;;;4934495;29;20107;-87
2023/11/15 12:12:46;;;;;;;21.23;3.28;;;8.80;99.90;;;;;;4926492;29;20042;-88
2023/11/15 12:15:15;;;;;;;17.17;3.33;;;8.90;99.90;;;;;;4936913;29;20027;-87
2023/11/15 12:17:45;;;;;;;23.65;3.50;;;8.80;99.90;;;;;;4938201;29;20027;-86
2023/11/15 12:20:12;;;;;;;24.85;3.40;;;8.80;99.90;;;;;;4937495;29;20051;-87
2023/11/15 12:22:43;;;;;;;35.83;4.30;;;8.80;99.90;;;;;;4936379;29;20032;-87
2023/11/15 12:25:15;;;;;;;16.98;2.97;;;8.90;99.90;;;;;;4935976;29;20091;-88
2023/11/15 12:27:42;;;;;;;12.38;1.90;;;8.90;99.90;;;;;;4935019;29;20032;-88
2023/11/15 12:30:10;;;;;;;30.00;5.30;;;8.90;99.90;;;;;;4934570;29;20028;-88
2023/11/15 12:32:44;;;;;;;14.00;1.92;;;8.90;99.90;;;;;;4936104;29;20380;-88
2023/11/15 12:35:11;;;;;;;14.48;2.15;;;8.90;99.90;;;;;;4932972;29;20031;-89
2023/11/15 12:37:37;;;;;;;9.50;2.00;;;8.90;99.90;;;;;;4935732;29;20556;-88
2023/11/15 12:40:22;;;;;;;21.35;2.83;;;8.90;99.90;;;;;;4934204;29;20059;-88
2023/11/15 12:42:56;;;;;;;15.65;2.22;;;8.90;99.90;;;;;;4934688;29;20035;-88
2023/11/15 12:45:28;;;;;;;10.07;2.00;;;8.90;99.90;;;;;;4934035;29;20153;-87
2023/11/15 12:48:07;;;;;;;14.45;2.42;;;8.90;99.90;;;;;;4934383;29;20392;-88
2023/11/15 12:50:37;;;;;;;26.50;3.00;;;8.90;99.90;;;;;;4935834;29;20069;-88
2023/11/15 12:53:11;;;;;;;29.98;3.67;;;9.00;99.90;;;;;;4934599;29;20024;-89
2023/11/15 12:55:49;;;;;;;21.42;3.58;;;9.00;99.90;;;;;;4933804;29;20034;-89
2023/11/15 12:58:39;;;;;;;20.52;5.65;;;8.90;99.90;;;;;;4933761;29;20038;-88
2023/11/15 13:01:11;;;;;;;17.33;2.87;;;9.00;99.90;;;;;;4932492;29;20048;-88
2023/11/15 13:03:38;;;;;;;20.92;2.53;;;9.00;99.90;;;;;;4932245;29;20091;-90
2023/11/15 13:06:15;;;;;;;24.77;2.30;;;9.00;99.90;;;;;;4933531;29;20091;-88
2023/11/15 13:08:48;;;;;;;21.20;2.38;;;9.00;99.90;;;;;;4933782;29;20035;-88
2023/11/15 13:11:16;;;;;;;23.58;3.80;;;9.00;99.90;;;;;;4931814;29;20048;-87
2023/11/15 13:13:45;;;;;;;10.00;2.10;;;9.00;99.90;;;;;;4934266;29;20027;-89
2023/11/15 13:16:12;;;;;;;14.38;2.25;;;9.00;99.90;;;;;;4933104;29;20023;-89
2023/11/15 13:18:39;;;;;;;9.65;2.13;;;9.00;99.90;;;;;;4934380;29;20386;-89
2023/11/15 13:21:07;;;;;;;15.55;2.38;;;9.00;99.90;;;;;;4938274;29;20045;-89
2023/11/15 13:23:39;;;;;;;20.48;2.95;;;9.00;99.90;;;;;;4937634;29;20446;-88
2023/11/15 13:26:05;;;;;;;17.20;3.08;;;9.00;99.90;;;;;;4938419;29;20036;-88
2023/11/15 13:28:34;;;;;;;18.08;2.35;;;9.00;99.90;;;;;;4937012;29;20107;-88
2023/11/15 13:31:01;;;;;;;12.45;2.03;;;9.00;99.90;;;;;;4937034;29;20481;-90
2023/11/15 13:33:29;;;;;;;18.40;2.88;;;9.00;99.90;;;;;;4932619;29;20062;-89
2023/11/15 13:35:56;;;;;;;15.15;2.22;;;9.00;99.90;;;;;;4930580;29;20020;-89
2023/11/15 13:38:21;;;;;;;18.27;2.40;;;9.10;99.90;;;;;;4937698;29;20036;-88
2023/11/15 13:40:47;;;;;;;16.55;2.35;;;9.00;99.90;;;;;;4931349;29;20040;-89
2023/11/15 13:43:17;;;;;;;20.10;1.75;;;9.00;99.90;;;;;;4933691;29;20035;-89
2023/11/15 13:45:45;;;;;;;19.42;2.15;;;9.00;99.90;;;;;;4933619;29;20400;-89
2023/11/15 13:48:11;;;;;;;12.38;1.90;;;9.00;99.90;;;;;;4929613;29;20016;-89
2023/11/15 13:50:37;;;;;;;21.73;3.28;;;9.10;99.90;;;;;;4932996;29;20040;-89
2023/11/15 13:53:05;;;;;;;16.30;2.28;;;9.10;99.90;;;;;;4931832;29;20025;-88